createdAt,value
2023-04-27T00:01:09.792Z,26.27
2023-04-27T00:03:37.057Z,16.48
2023-04-27T00:06:04.324Z,21.48
2023-04-27T00:08:32.014Z,18.35
2023-04-27T00:11:00.124Z,18.35
2023-04-27T00:13:27.523Z,22.55
2023-04-27T00:15:55.191Z,19.60
2023-04-27T00:18:22.279Z,23.88
2023-04-27T00:20:49.432Z,23.63
2023-04-27T00:23:16.489Z,29.08
2023-04-27T00:25:43.562Z,25.45
2023-04-27T00:28:10.663Z,26.15
2023-04-27T00:30:37.774Z,30.65
2023-04-27T00:33:05.319Z,30.65
2023-04-27T00:35:33.465Z,19.13
2023-04-27T00:38:00.643Z,22.25
2023-04-27T00:40:27.752Z,23.52
2023-04-27T00:42:55.501Z,22.55
2023-04-27T00:45:22.591Z,21.85
2023-04-27T00:47:49.921Z,22.13
2023-04-27T00:50:22.497Z,18.33
2023-04-27T00:52:49.823Z,23.50
2023-04-27T00:55:16.938Z,16.60
2023-04-27T00:57:44.068Z,15.23
2023-04-27T01:00:11.814Z,12.73
2023-04-27T01:02:40.188Z,9.60
2023-04-27T01:05:08.659Z,13.13
2023-04-27T01:07:39.761Z,16.55
2023-04-27T01:10:07.753Z,14.23
2023-04-27T01:12:35.040Z,10.70
2023-04-27T01:15:02.203Z,15.85
2023-04-27T01:17:29.350Z,15.32
2023-04-27T01:19:56.827Z,28.65
2023-04-27T01:22:24.280Z,13.18
2023-04-27T01:24:51.744Z,18.42
2023-04-27T01:27:19.087Z,18.50
2023-04-27T01:29:46.227Z,13.05
2023-04-27T01:32:13.659Z,13.48
2023-04-27T01:34:40.814Z,15.63
2023-04-27T01:37:07.937Z,9.77
2023-04-27T01:39:35.623Z,14.43
2023-04-27T01:42:03.715Z,11.00
2023-04-27T01:44:31.010Z,12.38
2023-04-27T01:46:58.138Z,13.07
2023-04-27T01:49:25.911Z,11.65
2023-04-27T01:51:52.992Z,17.13
2023-04-27T01:54:20.050Z,12.00
2023-04-27T01:56:47.229Z,13.65
2023-04-27T01:59:14.590Z,10.73
2023-04-27T02:01:41.944Z,15.95
2023-04-27T02:04:09.187Z,13.18
2023-04-27T02:06:36.497Z,11.25
2023-04-27T02:09:03.595Z,11.10
2023-04-27T02:11:30.648Z,13.10
2023-04-27T02:13:57.904Z,13.05
2023-04-27T02:16:25.017Z,9.38
2023-04-27T02:18:53.789Z,14.13
2023-04-27T02:21:21.105Z,11.75
2023-04-27T02:23:48.275Z,12.45
2023-04-27T02:26:22.382Z,14.23
2023-04-27T02:28:50.134Z,15.35
2023-04-27T02:31:17.662Z,10.60
2023-04-27T02:33:44.797Z,10.27
2023-04-27T02:36:11.854Z,9.77
2023-04-27T02:38:42.448Z,10.73
2023-04-27T02:41:09.517Z,13.38
2023-04-27T02:43:36.621Z,13.35
2023-04-27T02:46:04.547Z,9.88
2023-04-27T02:48:31.893Z,12.13
2023-04-27T02:50:59.082Z,8.05
2023-04-27T02:53:26.281Z,16.70
2023-04-27T02:55:53.405Z,11.10
2023-04-27T02:58:20.596Z,11.57
2023-04-27T03:00:48.862Z,8.52
2023-04-27T03:03:16.279Z,11.40
2023-04-27T03:05:43.508Z,12.13
2023-04-27T03:08:10.645Z,12.38
2023-04-27T03:10:37.854Z,10.75
2023-04-27T03:13:06.137Z,9.18
2023-04-27T03:15:33.301Z,10.63
2023-04-27T03:18:00.469Z,7.97
2023-04-27T03:20:27.588Z,8.95
2023-04-27T03:22:55.274Z,8.10
2023-04-27T03:25:22.525Z,9.68
2023-04-27T03:27:49.675Z,14.02
2023-04-27T03:30:16.821Z,12.40
2023-04-27T03:32:45.498Z,9.20
2023-04-27T03:35:14.257Z,12.88
2023-04-27T03:37:41.412Z,11.23
2023-04-27T03:40:09.202Z,8.48
2023-04-27T03:42:36.323Z,10.57
2023-04-27T03:45:04.183Z,9.38
2023-04-27T03:47:31.533Z,9.65
2023-04-27T03:49:58.693Z,9.63
2023-04-27T03:52:26.455Z,10.38
2023-04-27T03:54:53.500Z,8.70
2023-04-27T03:57:20.563Z,8.40
2023-04-27T03:59:47.606Z,12.10
2023-04-27T04:02:15.176Z,9.05
2023-04-27T04:04:42.660Z,8.57
2023-04-27T04:07:09.995Z,8.57
2023-04-27T04:09:37.123Z,10.88
2023-04-27T04:12:04.615Z,6.20
2023-04-27T04:14:31.918Z,9.60
2023-04-27T04:16:59.033Z,8.63
2023-04-27T04:19:26.062Z,9.70
2023-04-27T04:21:54.729Z,8.82
2023-04-27T04:24:21.778Z,12.00
2023-04-27T04:26:48.930Z,9.23
2023-04-27T04:29:16.983Z,9.27
2023-04-27T04:31:44.325Z,10.15
2023-04-27T04:34:11.505Z,7.47
2023-04-27T04:36:38.574Z,9.10
2023-04-27T04:39:07.017Z,12.77
2023-04-27T04:41:34.108Z,7.43
2023-04-27T04:44:01.646Z,8.07
2023-04-27T04:46:28.840Z,7.38
2023-04-27T04:48:58.684Z,12.98
2023-04-27T04:51:26.697Z,7.50
2023-04-27T04:53:53.914Z,16.02
2023-04-27T04:56:21.200Z,13.05
2023-04-27T04:58:48.365Z,10.15
2023-04-27T05:01:16.060Z,9.18
2023-04-27T05:03:43.286Z,12.25
2023-04-27T05:06:10.551Z,8.05
2023-04-27T05:08:37.645Z,13.32
2023-04-27T05:11:04.934Z,9.07
2023-04-27T05:13:32.047Z,10.98
2023-04-27T05:15:59.235Z,9.95
2023-04-27T05:18:26.386Z,9.23
2023-04-27T05:20:53.758Z,17.00
2023-04-27T05:23:21.062Z,10.38
2023-04-27T05:25:48.111Z,11.85
2023-04-27T05:28:15.984Z,18.95
2023-04-27T05:30:43.032Z,9.15
2023-04-27T05:33:10.152Z,10.98
2023-04-27T05:35:37.333Z,11.18
2023-04-27T05:38:04.957Z,10.80
2023-04-27T05:40:32.295Z,11.35
2023-04-27T05:43:01.826Z,12.85
2023-04-27T05:45:28.917Z,11.38
2023-04-27T05:47:56.030Z,9.13
2023-04-27T05:50:23.277Z,20.60
2023-04-27T05:52:50.929Z,9.20
2023-04-27T05:55:18.081Z,9.13
2023-04-27T05:57:47.697Z,7.93
2023-04-27T06:00:17.508Z,10.77
2023-04-27T06:02:44.766Z,8.00
2023-04-27T06:05:12.144Z,15.55
2023-04-27T06:07:39.597Z,8.40
2023-04-27T06:10:07.680Z,19.48
2023-04-27T06:12:35.371Z,13.95
2023-04-27T06:15:09.303Z,10.48
2023-04-27T06:17:36.783Z,6.40
2023-04-27T06:20:07.398Z,10.35
2023-04-27T06:22:37.028Z,8.90
2023-04-27T06:25:05.793Z,12.60
2023-04-27T06:27:33.854Z,10.93
2023-04-27T06:30:01.722Z,10.93
2023-04-27T06:32:28.952Z,14.25
2023-04-27T06:34:56.705Z,7.78
2023-04-27T06:37:24.196Z,5.38
2023-04-27T06:39:51.492Z,8.88
2023-04-27T06:42:18.593Z,5.57
2023-04-27T06:44:46.223Z,9.45
2023-04-27T06:47:13.701Z,6.20
2023-04-27T06:49:40.785Z,7.07
2023-04-27T06:52:07.923Z,6.30
2023-04-27T06:54:35.235Z,5.32
2023-04-27T06:57:03.509Z,8.82
2023-04-27T06:59:30.813Z,6.30
2023-04-27T07:01:57.992Z,5.97
2023-04-27T07:04:28.189Z,7.38
2023-04-27T07:06:56.400Z,5.57
2023-04-27T07:09:27.575Z,8.75
2023-04-27T07:11:55.839Z,3.60
2023-04-27T07:14:22.926Z,4.97
2023-04-27T07:16:50.273Z,7.15
2023-04-27T07:19:17.631Z,11.57
2023-04-27T07:21:44.806Z,6.20
2023-04-27T07:24:11.951Z,7.47
2023-04-27T07:26:39.502Z,6.07
2023-04-27T07:29:19.034Z,5.72
2023-04-27T07:31:53.259Z,6.18
2023-04-27T07:34:20.397Z,3.13
2023-04-27T07:36:47.792Z,7.65
2023-04-27T07:39:15.047Z,3.88
2023-04-27T07:41:42.338Z,5.82
2023-04-27T07:44:09.525Z,7.40
2023-04-27T07:46:38.488Z,6.50
2023-04-27T07:49:05.741Z,4.05
2023-04-27T07:51:35.258Z,10.48
2023-04-27T07:54:05.394Z,6.03
2023-04-27T07:56:33.067Z,5.57
2023-04-27T07:59:00.272Z,4.85
2023-04-27T08:01:27.457Z,5.05
2023-04-27T08:03:55.337Z,4.75
2023-04-27T08:06:23.582Z,6.35
2023-04-27T08:08:51.477Z,7.53
2023-04-27T08:11:18.576Z,3.22
2023-04-27T08:13:45.921Z,7.03
2023-04-27T08:16:13.129Z,6.22
2023-04-27T08:18:40.392Z,3.53
2023-04-27T08:21:07.400Z,4.50
2023-04-27T08:23:37.117Z,4.53
2023-04-27T08:26:05.059Z,3.80
2023-04-27T08:28:32.232Z,3.53
2023-04-27T08:30:59.895Z,5.22
2023-04-27T08:33:27.098Z,3.08
2023-04-27T08:35:55.274Z,3.22
2023-04-27T08:38:25.040Z,5.63
2023-04-27T08:40:52.821Z,4.00
2023-04-27T08:43:19.934Z,2.97
2023-04-27T08:45:50.552Z,3.78
2023-04-27T08:48:17.801Z,3.47
2023-04-27T08:50:48.759Z,8.15
2023-04-27T08:53:23.385Z,2.67
2023-04-27T08:55:51.458Z,1.80
2023-04-27T08:58:19.285Z,3.42
2023-04-27T09:00:47.942Z,3.20
2023-04-27T09:03:26.094Z,5.20
2023-04-27T09:06:05.195Z,4.78
2023-04-27T09:08:48.410Z,5.57
2023-04-27T09:11:29.565Z,8.32
2023-04-27T09:13:58.759Z,4.55
2023-04-27T09:16:28.555Z,4.55
2023-04-27T09:18:57.771Z,2.80
2023-04-27T09:21:29.159Z,5.13
2023-04-27T09:23:57.430Z,2.75
2023-04-27T09:26:27.138Z,3.30
2023-04-27T09:28:57.932Z,7.32
2023-04-27T09:31:35.862Z,2.85
2023-04-27T09:34:04.142Z,2.47
2023-04-27T09:36:32.772Z,2.85
2023-04-27T09:39:06.491Z,4.22
2023-04-27T09:41:34.168Z,2.67
2023-04-27T09:44:02.042Z,4.07
2023-04-27T09:46:29.980Z,3.15
2023-04-27T09:48:58.192Z,3.58
2023-04-27T09:51:26.098Z,3.95
2023-04-27T09:53:58.435Z,3.53
2023-04-27T09:56:57.661Z,3.45
2023-04-27T09:59:44.724Z,4.93
2023-04-27T10:02:25.183Z,4.50
2023-04-27T10:05:27.549Z,7.95
2023-04-27T10:07:55.527Z,6.85
2023-04-27T10:10:22.612Z,2.83
2023-04-27T10:12:57.776Z,4.88
2023-04-27T10:15:29.802Z,4.13
2023-04-27T10:18:03.615Z,2.83
2023-04-27T10:20:33.167Z,3.78
2023-04-27T10:23:00.836Z,5.65
2023-04-27T10:25:30.360Z,3.65
2023-04-27T10:28:02.068Z,4.55
2023-04-27T10:30:39.675Z,4.18
2023-04-27T10:33:09.311Z,5.07
2023-04-27T10:35:46.036Z,6.32
2023-04-27T10:38:21.798Z,9.52
2023-04-27T10:41:05.422Z,3.10
2023-04-27T10:43:37.822Z,6.13
2023-04-27T10:46:12.833Z,2.88
2023-04-27T10:48:41.278Z,6.15
2023-04-27T10:51:08.478Z,5.18
2023-04-27T10:53:36.858Z,3.60
2023-04-27T10:56:07.048Z,4.20
2023-04-27T10:58:48.120Z,3.17
2023-04-27T11:01:29.765Z,4.47
2023-04-27T11:04:01.749Z,3.67
2023-04-27T11:06:34.113Z,5.32
2023-04-27T11:09:01.710Z,5.13
2023-04-27T11:11:28.875Z,3.40
2023-04-27T11:13:56.479Z,4.07
2023-04-27T11:16:24.243Z,5.05
2023-04-27T11:18:51.414Z,4.63
2023-04-27T11:21:23.631Z,5.90
2023-04-27T11:23:51.265Z,9.25
2023-04-27T11:26:21.517Z,4.13
2023-04-27T11:29:06.285Z,4.78
2023-04-27T11:31:43.415Z,3.05
2023-04-27T11:34:17.093Z,4.15
2023-04-27T11:36:44.840Z,6.85
2023-04-27T11:39:21.973Z,4.40
2023-04-27T11:41:49.246Z,4.82
2023-04-27T11:44:19.825Z,5.28
2023-04-27T11:46:47.740Z,8.60
2023-04-27T11:49:15.510Z,5.55
2023-04-27T11:51:45.078Z,4.32
2023-04-27T11:54:13.337Z,4.63
2023-04-27T11:56:43.267Z,5.65
2023-04-27T11:59:21.693Z,5.90
2023-04-27T12:01:49.098Z,5.13
2023-04-27T12:04:17.214Z,3.95
2023-04-27T12:06:44.716Z,5.53
2023-04-27T12:09:12.241Z,4.68
2023-04-27T12:11:39.635Z,3.90
2023-04-27T12:14:08.189Z,5.95
2023-04-27T12:16:35.795Z,3.55
2023-04-27T12:19:03.146Z,4.10
2023-04-27T12:21:32.107Z,5.90
2023-04-27T12:23:59.265Z,3.75
2023-04-27T12:26:26.817Z,4.55
2023-04-27T12:28:54.250Z,4.60
2023-04-27T12:31:26.937Z,3.78
2023-04-27T12:33:57.684Z,3.70
2023-04-27T12:36:27.202Z,7.30
2023-04-27T12:38:59.156Z,6.00
2023-04-27T12:41:26.586Z,5.47
2023-04-27T12:43:54.300Z,5.65
2023-04-27T12:46:21.540Z,5.40
2023-04-27T12:48:48.874Z,6.90
2023-04-27T12:51:17.476Z,5.55
2023-04-27T12:53:44.756Z,4.80
2023-04-27T12:56:12.469Z,8.80
2023-04-27T12:58:40.085Z,5.07
2023-04-27T13:01:14.708Z,4.93
2023-04-27T13:03:48.431Z,5.05
2023-04-27T13:08:46.035Z,4.60
2023-04-27T13:11:13.163Z,5.45
2023-04-27T13:13:41.116Z,4.47
2023-04-27T13:16:08.547Z,5.30
2023-04-27T13:18:35.931Z,5.32
2023-04-27T13:21:05.233Z,5.65
2023-04-27T13:23:32.677Z,4.60
2023-04-27T13:26:00.115Z,3.38
2023-04-27T13:28:27.223Z,7.40
2023-04-27T13:30:55.629Z,4.57
2023-04-27T13:33:23.833Z,4.47
2023-04-27T13:35:51.902Z,5.95
2023-04-27T13:38:19.041Z,4.53
2023-04-27T13:40:47.245Z,3.92
2023-04-27T13:43:14.362Z,3.63
2023-04-27T13:45:42.687Z,7.85
2023-04-27T13:48:10.227Z,3.92
2023-04-27T13:50:37.841Z,7.10
2023-04-27T13:53:05.316Z,4.15
2023-04-27T13:55:32.488Z,4.75
2023-04-27T13:57:59.617Z,3.83
2023-04-27T14:00:28.790Z,3.60
2023-04-27T14:02:56.184Z,7.47
2023-04-27T14:05:23.397Z,6.65
2023-04-27T14:07:50.595Z,5.07
2023-04-27T14:10:17.825Z,3.22
2023-04-27T14:12:45.926Z,3.28
2023-04-27T14:15:13.024Z,4.65
2023-04-27T14:17:40.477Z,3.63
2023-04-27T14:20:08.347Z,3.90
2023-04-27T14:22:36.179Z,4.03
2023-04-27T14:25:03.785Z,5.47
2023-04-27T14:27:31.154Z,5.00
2023-04-27T14:29:58.363Z,3.05
2023-04-27T14:32:26.463Z,2.97
2023-04-27T14:34:54.277Z,4.13
2023-04-27T14:37:21.430Z,4.40
2023-04-27T14:39:48.728Z,6.40
2023-04-27T14:42:16.345Z,2.65
2023-04-27T14:44:43.566Z,9.40
2023-04-27T14:47:10.815Z,3.88
2023-04-27T14:49:38.116Z,5.60
2023-04-27T14:52:06.749Z,3.92
2023-04-27T14:54:35.549Z,7.50
2023-04-27T14:57:06.611Z,3.40
2023-04-27T14:59:34.354Z,3.13
2023-04-27T15:02:01.668Z,5.72
2023-04-27T15:04:29.258Z,2.22
2023-04-27T15:06:56.532Z,3.22
2023-04-27T15:09:24.133Z,4.65
2023-04-27T15:11:51.227Z,4.38
2023-04-27T15:14:18.317Z,6.15
2023-04-27T15:16:45.918Z,3.78
2023-04-27T15:19:13.225Z,3.05
2023-04-27T15:21:40.620Z,3.33
2023-04-27T15:24:07.757Z,3.35
2023-04-27T15:26:35.500Z,2.80
2023-04-27T15:29:02.919Z,4.15
2023-04-27T15:31:30.022Z,3.15
2023-04-27T15:33:57.262Z,5.38
2023-04-27T15:36:26.783Z,3.28
2023-04-27T15:38:54.551Z,5.82
2023-04-27T15:41:22.109Z,2.90
2023-04-27T15:43:51.419Z,4.00
2023-04-27T15:46:19.017Z,2.67
2023-04-27T15:48:46.274Z,5.75
2023-04-27T15:51:13.495Z,4.15
2023-04-27T15:53:40.559Z,2.35
2023-04-27T15:56:07.724Z,2.83
2023-04-27T15:58:35.310Z,3.05
2023-04-27T16:01:03.036Z,4.18
2023-04-27T16:03:30.509Z,4.32
2023-04-27T16:05:57.636Z,4.50
2023-04-27T16:08:26.930Z,9.85
2023-04-27T16:10:54.425Z,3.47
2023-04-27T16:13:22.905Z,5.22
2023-04-27T16:15:50.058Z,4.22
2023-04-27T16:18:20.392Z,2.83
2023-04-27T16:20:47.494Z,3.88
2023-04-27T16:23:15.146Z,3.35
2023-04-27T16:25:42.292Z,3.58
2023-04-27T16:28:10.832Z,4.07
2023-04-27T16:30:38.811Z,2.85
2023-04-27T16:33:06.062Z,3.08
2023-04-27T16:35:34.251Z,4.18
2023-04-27T16:38:01.652Z,4.75
2023-04-27T16:40:28.777Z,3.08
2023-04-27T16:42:55.989Z,2.45
2023-04-27T16:45:23.252Z,3.55
2023-04-27T16:47:50.670Z,3.50
2023-04-27T16:50:18.009Z,5.68
2023-04-27T16:52:45.424Z,3.83
2023-04-27T16:55:12.538Z,3.15
2023-04-27T16:57:39.947Z,4.20
2023-04-27T17:00:09.772Z,2.50
2023-04-27T17:02:37.475Z,6.10
2023-04-27T17:05:05.429Z,5.22
2023-04-27T17:07:32.975Z,7.65
2023-04-27T17:10:00.186Z,4.13
2023-04-27T17:12:27.477Z,2.85
2023-04-27T17:14:54.666Z,2.90
2023-04-27T17:17:22.044Z,3.00
2023-04-27T17:19:49.323Z,4.28
2023-04-27T17:22:16.689Z,4.47
2023-04-27T17:24:43.820Z,5.50
2023-04-27T17:27:11.182Z,5.22
2023-04-27T17:29:38.259Z,3.97
2023-04-27T17:32:05.897Z,4.13
2023-04-27T17:34:33.262Z,4.68
2023-04-27T17:37:00.481Z,5.75
2023-04-27T17:39:28.246Z,5.53
2023-04-27T17:41:58.723Z,4.50
2023-04-27T17:44:25.883Z,5.63
2023-04-27T17:46:53.093Z,6.03
2023-04-27T17:49:20.325Z,4.80
2023-04-27T17:51:48.657Z,7.07
2023-04-27T17:54:16.086Z,6.28
2023-04-27T17:56:43.966Z,8.68
2023-04-27T17:59:11.164Z,4.32
2023-04-27T18:01:38.302Z,5.68
2023-04-27T18:04:08.826Z,4.25
2023-04-27T18:06:36.435Z,4.53
2023-04-27T18:09:04.323Z,5.90
2023-04-27T18:11:32.501Z,7.65
2023-04-27T18:13:59.763Z,4.10
2023-04-27T18:16:27.014Z,7.28
2023-04-27T18:18:54.456Z,4.68
2023-04-27T18:21:21.629Z,5.07
2023-04-27T18:23:48.731Z,6.13
2023-04-27T18:26:16.966Z,6.60
2023-04-27T18:28:44.164Z,5.35
2023-04-27T18:31:18.591Z,8.35
2023-04-27T18:33:47.095Z,5.70
2023-04-27T18:36:14.284Z,5.75
2023-04-27T18:38:41.513Z,7.35
2023-04-27T18:41:08.612Z,7.10
2023-04-27T18:43:39.071Z,6.30
2023-04-27T18:46:06.306Z,6.20
2023-04-27T18:48:33.520Z,5.00
2023-04-27T18:51:01.006Z,5.53
2023-04-27T18:53:28.439Z,7.22
2023-04-27T18:55:55.806Z,4.53
2023-04-27T18:58:23.411Z,7.03
2023-04-27T19:00:50.768Z,6.60
2023-04-27T19:03:18.120Z,6.28
2023-04-27T19:05:45.966Z,6.32
2023-04-27T19:08:13.240Z,7.35
2023-04-27T19:10:43.449Z,7.22
2023-04-27T19:13:10.627Z,10.25
2023-04-27T19:15:39.000Z,5.82
2023-04-27T19:18:11.516Z,8.05
2023-04-27T19:20:40.238Z,6.20
2023-04-27T19:23:09.373Z,8.13
2023-04-27T19:25:36.824Z,8.18
2023-04-27T19:28:05.760Z,9.98
2023-04-27T19:30:32.834Z,10.15
2023-04-27T19:33:00.027Z,7.68
2023-04-27T19:35:27.576Z,7.00
2023-04-27T19:37:57.615Z,7.03
2023-04-27T19:40:25.063Z,6.85
2023-04-27T19:42:52.192Z,11.55
2023-04-27T19:45:19.245Z,7.22
2023-04-27T19:47:47.118Z,6.80
2023-04-27T19:50:14.764Z,6.55
2023-04-27T19:52:41.893Z,6.30
2023-04-27T19:55:09.415Z,5.63
2023-04-27T19:57:36.501Z,6.13
2023-04-27T20:00:05.352Z,6.63
2023-04-27T20:02:32.938Z,8.05
2023-04-27T20:05:00.480Z,8.32
2023-04-27T20:07:27.800Z,7.95
2023-04-27T20:09:55.304Z,11.68
2023-04-27T20:12:43.437Z,5.38
2023-04-27T20:15:10.228Z,12.43
2023-04-27T20:17:37.722Z,7.22
2023-04-27T20:20:10.156Z,8.68
2023-04-27T20:22:38.018Z,8.52
2023-04-27T20:25:07.883Z,6.72
2023-04-27T20:27:35.866Z,7.43
2023-04-27T20:30:04.317Z,7.15
2023-04-27T20:32:31.638Z,8.15
2023-04-27T20:35:00.172Z,7.07
2023-04-27T20:37:28.629Z,5.88
2023-04-27T20:39:55.923Z,8.80
2023-04-27T20:42:23.034Z,9.18
2023-04-27T20:44:50.469Z,6.50
2023-04-27T20:47:17.663Z,7.70
2023-04-27T20:49:44.713Z,9.27
2023-04-27T20:52:11.840Z,7.22
2023-04-27T20:54:39.832Z,10.30
2023-04-27T20:57:13.512Z,5.78
2023-04-27T21:02:08.338Z,5.90
2023-04-27T21:04:35.904Z,6.00
2023-04-27T21:07:03.078Z,6.65
2023-04-27T21:09:30.358Z,5.97
2023-04-27T21:11:57.454Z,5.68
2023-04-27T21:14:24.983Z,5.47
2023-04-27T21:16:52.075Z,6.90
2023-04-27T21:19:19.174Z,5.75
2023-04-27T21:21:46.357Z,6.53
2023-04-27T21:24:13.650Z,6.57
2023-04-27T21:26:42.196Z,6.60
2023-04-27T21:29:09.361Z,8.50
2023-04-27T21:31:36.756Z,7.25
2023-04-27T21:34:04.360Z,6.93
2023-04-27T21:36:33.150Z,5.68
2023-04-27T21:39:00.257Z,5.88
2023-04-27T21:41:27.461Z,5.05
2023-04-27T21:43:57.474Z,5.00
2023-04-27T21:46:25.236Z,6.47
2023-04-27T21:48:52.373Z,8.50
2023-04-27T21:51:19.474Z,6.80
2023-04-27T21:53:47.157Z,6.18
2023-04-27T21:56:14.328Z,4.75
2023-04-27T21:58:41.563Z,6.13
2023-04-27T22:01:08.714Z,4.60
2023-04-27T22:03:37.017Z,5.55
2023-04-27T22:06:05.006Z,6.97
2023-04-27T22:08:32.389Z,5.68
2023-04-27T22:10:59.503Z,5.93
2023-04-27T22:13:26.809Z,7.53
2023-04-27T22:15:54.037Z,8.43
2023-04-27T22:18:21.151Z,6.82
2023-04-27T22:20:49.427Z,5.78
2023-04-27T22:23:17.148Z,8.43
2023-04-27T22:25:44.316Z,6.82
2023-04-27T22:28:11.482Z,8.00
2023-04-27T22:30:40.798Z,6.05
2023-04-27T22:33:08.696Z,6.38
2023-04-27T22:35:36.965Z,7.43
2023-04-27T22:38:04.230Z,8.00
2023-04-27T22:40:31.345Z,7.28
2023-04-27T22:43:01.833Z,6.68
2023-04-27T22:45:28.891Z,6.25
2023-04-27T22:47:57.496Z,7.38
2023-04-27T22:50:25.064Z,4.53
2023-04-27T22:52:53.123Z,6.80
2023-04-27T22:55:20.347Z,5.72
2023-04-27T22:57:49.828Z,8.10
2023-04-27T23:00:17.681Z,5.80
2023-04-27T23:02:45.112Z,9.63
2023-04-27T23:05:12.520Z,8.07
2023-04-27T23:07:41.375Z,6.60
2023-04-27T23:10:09.348Z,6.82
2023-04-27T23:12:37.949Z,8.48
2023-04-27T23:15:08.199Z,9.32
2023-04-27T23:17:35.944Z,4.30
2023-04-27T23:20:20.361Z,6.47
2023-04-27T23:22:54.187Z,6.72
2023-04-27T23:25:21.554Z,7.28
2023-04-27T23:27:49.947Z,4.78
2023-04-27T23:30:18.938Z,5.25
2023-04-27T23:32:46.264Z,4.03
2023-04-27T23:35:13.360Z,7.60
2023-04-27T23:37:40.507Z,6.35
2023-04-27T23:40:08.497Z,7.40
2023-04-27T23:42:36.084Z,6.07
2023-04-27T23:45:04.489Z,4.13
2023-04-27T23:47:33.729Z,7.82
2023-04-27T23:50:02.694Z,10.85
2023-04-27T23:52:29.726Z,5.82
2023-04-27T23:54:58.140Z,6.72
2023-04-27T23:57:25.539Z,8.98
2023-04-27T23:59:52.562Z,5.10
